Time;durP1;ratioP1;P1;durP2;ratioP2;P2;SDS_P1;SDS_P2;PMS_P1;PMS_P2;Temp;Humidity;BMP_temperature;BMP_pressure;BME280_temperature;BME280_humidity;BME280_pressure;Samples;Min_cycle;Max_cycle;Signal;HPM_P1;HPM_P2
2022/10/15 00:04:01;;;;;;;89.65;30.35;;;;;;;9.30;100.00;100473.25;10540105;28;20044;-71
2022/10/15 00:09:04;;;;;;;78.25;28.73;;;;;;;9.27;100.00;100469.84;10542294;28;20059;-73
2022/10/15 00:14:06;;;;;;;88.68;31.00;;;;;;;9.22;100.00;100471.81;10542573;28;20052;-72
2022/10/15 00:19:10;;;;;;;96.00;32.63;;;;;;;9.40;100.00;100471.91;10541811;28;20108;-71
2022/10/15 00:24:12;;;;;;;90.20;32.45;;;;;;;9.45;100.00;100476.94;10541353;28;20044;-73
2022/10/15 00:29:15;;;;;;;101.10;36.17;;;;;;;9.68;100.00;100478.53;10542029;28;20075;-70
2022/10/15 00:34:18;;;;;;;97.63;34.53;;;;;;;9.86;100.00;100469.03;10538711;28;20446;-70
2022/10/15 00:39:19;;;;;;;101.30;35.80;;;;;;;9.87;100.00;100477.69;10541249;28;20048;-72
2022/10/15 00:44:53;;;;;;;102.35;36.28;;;;;;;9.92;100.00;100470.50;10540959;28;20071;-72
2022/10/15 00:50:03;;;;;;;105.82;36.60;;;;;;;9.97;100.00;100481.59;10540949;28;20093;-72
2022/10/15 00:55:11;;;;;;;95.72;36.53;;;;;;;10.06;100.00;100477.69;10540339;28;20040;-72
2022/10/15 01:00:15;;;;;;;92.88;35.38;;;;;;;10.33;100.00;100484.31;10538050;28;20083;-72
2022/10/15 01:05:18;;;;;;;92.57;33.47;;;;;;;10.41;100.00;100487.41;10540478;28;20120;-71
2022/10/15 01:10:24;;;;;;;87.63;33.53;;;;;;;10.53;100.00;100486.84;10539912;28;20045;-73
2022/10/15 01:15:35;;;;;;;83.85;33.78;;;;;;;10.63;100.00;100481.19;10539593;28;20066;-72
2022/10/15 01:21:04;;;;;;;79.00;33.08;;;;;;;10.76;100.00;100477.06;10540028;28;20048;-72
2022/10/15 01:26:43;;;;;;;73.45;33.50;;;;;;;10.89;100.00;100471.22;10539071;28;20052;-75
2022/10/15 01:32:00;;;;;;;74.32;32.53;;;;;;;10.95;100.00;100465.72;10537772;28;20100;-74
2022/10/15 01:37:11;;;;;;;73.30;31.70;;;;;;;11.07;100.00;100449.44;10538685;28;20043;-74
2022/10/15 01:42:22;;;;;;;70.90;31.67;;;;;;;11.13;100.00;100448.28;10539303;28;20058;-72
2022/10/15 01:47:33;;;;;;;66.47;29.47;;;;;;;11.22;100.00;100441.72;10538902;28;20085;-74
2022/10/15 01:52:40;;;;;;;71.88;29.88;;;;;;;11.27;100.00;100437.13;10500421;28;20480;-78
2022/10/15 01:57:46;;;;;;;63.58;30.00;;;;;;;11.31;100.00;100435.16;10496822;28;20048;-74
2022/10/15 02:02:48;;;;;;;67.63;29.55;;;;;;;11.36;100.00;100432.31;10493646;28;20115;-74
2022/10/15 02:08:02;;;;;;;65.68;29.98;;;;;;;11.39;100.00;100437.41;10496146;28;20049;-74
2022/10/15 02:13:18;;;;;;;62.35;27.48;;;;;;;11.42;100.00;100425.00;10495431;28;20080;-76
2022/10/15 02:18:33;;;;;;;65.30;29.42;;;;;;;11.42;100.00;100429.38;10495743;28;20044;-77
2022/10/15 02:23:46;;;;;;;64.40;29.15;;;;;;;11.46;100.00;100420.44;10495212;28;20049;-74
2022/10/15 02:28:55;;;;;;;59.42;28.15;;;;;;;11.47;100.00;100414.31;10495745;28;20516;-75
2022/10/15 02:34:05;;;;;;;56.50;26.33;;;;;;;11.47;100.00;100403.88;10493236;28;20040;-74
2022/10/15 02:39:12;;;;;;;54.78;26.42;;;;;;;11.46;100.00;100405.63;10495088;28;20045;-65
2022/10/15 02:44:14;;;;;;;56.67;25.92;;;;;;;11.48;100.00;100389.88;10495195;28;20094;-65
2022/10/15 02:49:17;;;;;;;57.47;26.25;;;;;;;11.49;100.00;100385.50;10494667;28;20048;-64
2022/10/15 02:54:19;;;;;;;49.67;25.33;;;;;;;11.49;100.00;100381.09;10494841;28;20061;-63
2022/10/15 02:59:21;;;;;;;53.00;26.70;;;;;;;11.51;100.00;100378.41;10494540;28;20048;-64
2022/10/15 03:04:24;;;;;;;43.88;24.27;;;;;;;11.54;100.00;100373.03;10492611;28;20048;-78
2022/10/15 03:09:25;;;;;;;36.50;22.80;;;;;;;11.53;100.00;100366.94;10494380;28;20118;-75
2022/10/15 03:14:27;;;;;;;42.50;23.40;;;;;;;11.55;100.00;100359.03;10494337;28;20080;-77
2022/10/15 03:19:30;;;;;;;39.72;23.10;;;;;;;11.56;100.00;100364.16;10494335;28;20080;-73
2022/10/15 03:24:31;;;;;;;43.97;23.52;;;;;;;11.56;100.00;100374.63;10497058;28;20052;-73
2022/10/15 03:29:33;;;;;;;36.50;22.88;;;;;;;11.58;100.00;100364.09;10502299;28;20075;-75
2022/10/15 03:34:36;;;;;;;42.03;24.30;;;;;;;11.58;100.00;100370.16;10499858;28;20116;-75
2022/10/15 03:39:38;;;;;;;42.20;23.58;;;;;;;11.57;100.00;100365.03;10501673;28;20178;-74
2022/10/15 03:44:39;;;;;;;37.55;22.73;;;;;;;11.64;100.00;100362.91;10501676;28;20512;-75
2022/10/15 03:49:42;;;;;;;40.72;23.23;;;;;;;11.67;100.00;100357.53;10501324;28;20079;-75
2022/10/15 03:54:44;;;;;;;40.28;21.95;;;;;;;11.66;100.00;100350.59;10501629;28;20071;-74
2022/10/15 03:59:46;;;;;;;39.05;22.58;;;;;;;11.66;100.00;100354.06;10501033;28;20079;-74
2022/10/15 04:04:52;;;;;;;38.88;21.88;;;;;;;11.68;100.00;100361.81;10498295;28;20497;-76
2022/10/15 04:09:53;;;;;;;34.28;20.80;;;;;;;11.71;100.00;100364.25;10500522;28;20052;-74
2022/10/15 04:14:55;;;;;;;32.20;21.13;;;;;;;11.70;100.00;100357.31;10500811;28;20079;-74
2022/10/15 04:19:59;;;;;;;39.20;24.02;;;;;;;11.71;100.00;100364.25;10500709;28;20098;-78
2022/10/15 04:25:00;;;;;;;37.90;23.15;;;;;;;11.78;100.00;100368.22;10500137;28;20080;-74
2022/10/15 04:30:05;;;;;;;39.30;24.08;;;;;;;11.82;100.00;100372.34;10498773;28;20052;-76
2022/10/15 04:35:08;;;;;;;45.88;27.05;;;;;;;11.84;100.00;100359.22;10498714;28;20394;-75
2022/10/15 04:40:13;;;;;;;45.80;27.38;;;;;;;11.92;100.00;100353.53;10499410;28;20086;-74
2022/10/15 04:45:15;;;;;;;41.33;26.85;;;;;;;11.91;100.00;100355.28;10498810;28;20040;-71
2022/10/15 04:50:19;;;;;;;;;;;;;;;11.94;100.00;100356.91;10499024;28;20465;-73
2022/10/15 04:55:20;;;;;;;40.28;24.92;;;;;;;11.97;100.00;100352.34;10499090;28;20042;-73
2022/10/15 05:00:22;;;;;;;40.10;25.05;;;;;;;11.97;100.00;100348.88;10496145;28;20068;-71
2022/10/15 05:05:25;;;;;;;37.95;22.55;;;;;;;11.99;100.00;100352.28;10499210;28;20079;-72
2022/10/15 05:10:27;;;;;;;34.53;23.75;;;;;;;12.01;100.00;100366.09;10498415;28;20090;-74
2022/10/15 05:15:29;;;;;;;32.42;20.80;;;;;;;12.05;100.00;100362.38;10498233;28;20052;-74
2022/10/15 05:20:32;;;;;;;;;;;;;;;12.06;100.00;100358.03;10498771;28;20293;-76
2022/10/15 05:25:33;;;;;;;34.03;21.38;;;;;;;12.06;100.00;100360.63;10497686;28;19958;-75
2022/10/15 05:30:35;;;;;;;32.45;21.10;;;;;;;12.07;100.00;100359.69;10494839;28;20056;-73
2022/10/15 05:35:38;;;;;;;29.92;20.83;;;;;;;12.05;100.00;100364.97;10497064;28;20075;-74
2022/10/15 05:40:40;;;;;;;33.05;22.38;;;;;;;12.00;100.00;100366.19;10497197;28;20119;-74
2022/10/15 05:45:42;;;;;;;34.00;19.95;;;;;;;11.94;100.00;100354.31;10496235;28;20068;-73
2022/10/15 05:50:44;;;;;;;32.13;20.90;;;;;;;11.92;100.00;100345.69;10496959;28;20075;-73
2022/10/15 05:55:46;;;;;;;35.30;22.15;;;;;;;11.90;100.00;100347.56;10496536;28;20086;-70
2022/10/15 06:00:54;;;;;;;37.05;23.73;;;;;;;11.82;100.00;100343.59;10494058;28;20162;-74
2022/10/15 06:05:57;;;;;;;36.72;22.73;;;;;;;11.71;100.00;100353.81;10496326;28;20048;-73
2022/10/15 06:11:03;;;;;;;40.88;23.38;;;;;;;11.64;100.00;100357.69;10495664;28;20083;-73
2022/10/15 06:16:05;;;;;;;44.45;25.02;;;;;;;11.61;100.00;100357.84;10495527;28;20048;-80
2022/10/15 06:21:10;;;;;;;43.55;25.23;;;;;;;11.66;100.00;100350.59;10496152;28;20053;-78
2022/10/15 06:26:12;;;;;;;41.58;24.02;;;;;;;11.73;100.00;100354.56;10495798;28;20051;-75
2022/10/15 06:31:13;;;;;;;;;;;;;;;11.74;100.00;100358.88;10493646;28;20052;-78
2022/10/15 06:36:16;;;;;;;35.13;21.63;;;;;;;11.79;100.00;100354.22;10495777;28;20012;-75
2022/10/15 06:41:18;;;;;;;33.03;21.77;;;;;;;11.81;100.00;100360.19;10495209;28;20485;-77
2022/10/15 06:46:23;;;;;;;32.45;21.75;;;;;;;11.87;100.00;100350.34;10495491;28;20072;-74
2022/10/15 06:51:26;;;;;;;35.90;20.73;;;;;;;11.91;100.00;100354.47;10494601;28;20059;-63
2022/10/15 06:56:27;;;;;;;36.10;21.10;;;;;;;11.97;100.00;100354.97;10495230;28;20104;-63
2022/10/15 07:01:29;;;;;;;36.58;21.10;;;;;;;11.97;100.00;100344.50;10500334;28;20501;-64
2022/10/15 07:06:34;;;;;;;30.85;20.23;;;;;;;11.97;100.00;100344.50;10503924;28;20380;-73
2022/10/15 07:11:35;;;;;;;34.10;20.80;;;;;;;12.01;100.00;100362.66;10504684;28;20144;-78
2022/10/15 07:16:38;;;;;;;34.90;20.25;;;;;;;12.18;100.00;100369.56;10505146;28;20476;-77
2022/10/15 07:21:41;;;;;;;33.13;20.08;;;;;;;12.57;100.00;100365.59;10502882;28;20040;-75
2022/10/15 07:26:42;;;;;;;29.52;19.02;;;;;;;12.96;100.00;100351.97;10502220;28;20195;-75
2022/10/15 07:31:44;;;;;;;24.77;16.02;;;;;;;12.60;100.00;100333.97;10500134;28;20075;-75
2022/10/15 07:36:47;;;;;;;27.98;19.10;;;;;;;13.11;100.00;100324.03;10501686;28;20041;-73
2022/10/15 07:41:48;;;;;;;26.33;17.52;;;;;;;12.93;100.00;100329.44;10501400;28;20117;-74
2022/10/15 07:46:50;;;;;;;27.92;17.85;;;;;;;12.84;100.00;100328.22;10501458;28;20066;-78
2022/10/15 07:51:53;;;;;;;25.50;15.93;;;;;;;13.03;100.00;100319.22;10501261;28;20527;-72
2022/10/15 07:56:55;;;;;;;26.20;16.13;;;;;;;14.27;100.00;100318.44;10501561;28;20071;-76
2022/10/15 08:01:56;;;;;;;19.23;13.65;;;;;;;13.65;100.00;100315.44;10499259;28;20052;-79
2022/10/15 08:06:59;;;;;;;17.23;13.23;;;;;;;13.59;100.00;100310.56;10500625;28;20075;-72
2022/10/15 08:12:01;;;;;;;17.02;11.48;;;;;;;13.52;100.00;100311.91;10500326;28;20557;-64
2022/10/15 08:17:05;;;;;;;15.93;10.25;;;;;;;13.39;100.00;100303.94;10500135;28;20102;-64
2022/10/15 08:22:08;;;;;;;13.73;9.85;;;;;;;13.77;100.00;100302.47;10500160;28;20045;-62
2022/10/15 08:27:09;;;;;;;12.90;9.40;;;;;;;13.84;100.00;100303.75;10499716;28;20094;-62
2022/10/15 08:32:12;;;;;;;;;;;;;;;13.71;100.00;100308.09;10497690;28;20122;-63
2022/10/15 08:37:15;;;;;;;13.13;8.35;;;;;;;13.78;100.00;100306.78;10499364;28;19920;-64
2022/10/15 08:42:22;;;;;;;10.70;8.15;;;;;;;13.82;100.00;100292.50;10474166;28;20069;-65
2022/10/15 08:47:34;;;;;;;8.45;7.30;;;;;;;13.93;100.00;100283.13;10467122;28;20056;-63
2022/10/15 08:52:43;;;;;;;10.60;6.90;;;;;;;13.99;100.00;100282.72;10498593;28;20048;-63
2022/10/15 08:57:51;;;;;;;8.45;6.78;;;;;;;13.96;100.00;100277.69;10500074;28;20049;-61
2022/10/15 09:03:03;;;;;;;9.35;6.63;;;;;;;13.97;100.00;100263.59;10496840;28;20111;-63
2022/10/15 09:08:22;;;;;;;7.47;6.50;;;;;;;14.33;100.00;100251.59;10498820;28;20515;-64
2022/10/15 09:13:30;;;;;;;10.30;6.70;;;;;;;14.36;100.00;100243.50;10500182;28;20048;-64
2022/10/15 09:18:37;;;;;;;6.43;5.53;;;;;;;14.21;100.00;100255.03;10500069;28;20060;-65
2022/10/15 09:23:42;;;;;;;7.43;5.43;;;;;;;14.23;100.00;100247.91;10498620;28;20055;-63
2022/10/15 09:28:55;;;;;;;7.32;5.70;;;;;;;14.29;100.00;100250.13;10499130;28;20109;-64
2022/10/15 09:34:05;;;;;;;7.95;5.78;;;;;;;14.23;100.00;100253.16;10496731;28;20512;-62
2022/10/15 09:39:40;;;;;;;6.38;4.72;;;;;;;14.11;100.00;100245.19;10466199;28;20055;-61
2022/10/15 09:44:46;;;;;;;6.40;5.32;;;;;;;13.95;100.00;100250.59;10455049;28;20512;-64
2022/10/15 09:49:48;;;;;;;6.05;4.82;;;;;;;13.68;100.00;100245.41;10457170;28;20046;-63
2022/10/15 09:55:02;;;;;;;;;;;;;;;13.69;100.00;100237.41;10456828;28;20075;-63
2022/10/15 10:00:10;;;;;;;6.03;3.80;;;;;;;13.78;100.00;100225.47;10456585;28;19990;-64
2022/10/15 10:05:27;;;;;;;5.43;3.90;;;;;;;13.94;100.00;100237.56;10487088;28;20165;-74
2022/10/15 10:10:31;;;;;;;4.72;3.67;;;;;;;14.13;100.00;100218.84;10461169;28;20059;-76
2022/10/15 10:15:38;;;;;;;6.22;3.40;;;;;;;14.22;100.00;100225.22;10471153;28;20064;-77
2022/10/15 10:20:57;;;;;;;3.55;3.13;;;;;;;14.49;100.00;100211.16;10497477;28;20052;-76
2022/10/15 10:26:03;;;;;;;2.65;2.45;;;;;;;14.61;100.00;100214.72;10497271;28;20044;-81
2022/10/15 10:31:09;;;;;;;3.53;2.25;;;;;;;14.74;100.00;100214.69;10494574;28;20059;-82
2022/10/15 10:36:24;;;;;;;2.83;2.30;;;;;;;14.88;100.00;100211.16;10497304;28;20044;-73
2022/10/15 10:41:52;;;;;;;2.13;1.88;;;;;;;14.83;100.00;100240.34;10488965;28;20118;-80
2022/10/15 10:47:10;;;;;;;2.17;1.83;;;;;;;15.11;100.00;100224.41;10449907;28;20106;-74
2022/10/15 10:52:26;;;;;;;1.75;1.63;;;;;;;15.05;100.00;100230.94;10455773;28;20076;-63
2022/10/15 10:57:42;;;;;;;4.25;1.70;;;;;;;15.02;100.00;100226.75;10454810;28;20110;-64
2022/10/15 11:02:45;;;;;;;3.30;1.45;;;;;;;15.00;100.00;100219.94;10452679;28;20049;-62
2022/10/15 11:07:59;;;;;;;2.05;1.83;;;;;;;15.17;100.00;100216.94;10454522;28;20053;-65
2022/10/15 11:13:33;;;;;;;2.58;1.77;;;;;;;15.47;100.00;100206.09;10454598;28;20384;-63
2022/10/15 11:18:59;;;;;;;2.03;1.88;;;;;;;15.41;100.00;100207.38;10455035;28;20071;-63
2022/10/15 11:24:15;;;;;;;1.80;1.70;;;;;;;15.57;100.00;100213.19;10454484;28;20053;-62
2022/10/15 11:29:30;;;;;;;1.90;1.80;;;;;;;15.77;100.00;100204.78;10454071;28;20049;-62
2022/10/15 11:34:52;;;;;;;2.25;1.90;;;;;;;15.67;100.00;100213.34;10452178;28;20114;-70
2022/10/15 11:40:14;;;;;;;2.63;2.00;;;;;;;15.51;100.00;100212.81;10493318;28;20048;-69
2022/10/15 11:45:42;;;;;;;2.53;2.33;;;;;;;15.33;100.00;100213.22;10482438;28;20071;-64
2022/10/15 11:50:52;;;;;;;2.30;2.20;;;;;;;15.39;100.00;100210.13;10461717;28;20485;-62
2022/10/15 11:56:04;;;;;;;2.40;1.92;;;;;;;15.42;100.00;100209.06;10460852;28;20080;-63
2022/10/15 12:01:18;;;;;;;3.45;2.22;;;;;;;15.45;100.00;100204.44;10468598;28;20063;-64
2022/10/15 12:06:26;;;;;;;2.45;2.35;;;;;;;15.62;100.00;100193.59;10502227;28;20057;-63
2022/10/15 12:11:46;;;;;;;3.67;2.17;;;;;;;15.86;100.00;100196.19;10501900;28;20466;-63
2022/10/15 12:17:04;;;;;;;2.20;2.00;;;;;;;16.01;100.00;100198.66;10493756;28;20045;-63
2022/10/15 12:22:10;;;;;;;3.25;1.90;;;;;;;16.02;100.00;100201.19;10478514;28;20099;-65
2022/10/15 12:27:22;;;;;;;2.30;1.92;;;;;;;16.16;100.00;100199.28;10460537;28;20187;-65
2022/10/15 12:32:28;;;;;;;2.28;2.08;;;;;;;16.46;100.00;100177.63;10484610;28;20055;-62
2022/10/15 12:37:35;;;;;;;2.20;2.10;;;;;;;17.26;100.00;100179.31;10501197;28;20467;-64
2022/10/15 12:42:40;;;;;;;3.97;2.08;;;;;;;18.11;100.00;100197.88;10501394;28;20048;-66
2022/10/15 12:47:53;;;;;;;2.42;2.13;;;;;;;18.12;100.00;100196.91;10501439;28;20053;-64
2022/10/15 12:53:00;;;;;;;2.60;1.90;;;;;;;17.76;100.00;100199.84;10501065;28;20044;-62
2022/10/15 12:58:06;;;;;;;2.72;2.22;;;;;;;18.01;100.00;100189.03;10500218;28;20048;-62
2022/10/15 13:03:34;;;;;;;5.47;2.35;;;;;;;18.46;100.00;100190.53;10498087;28;20537;-63
2022/10/15 13:08:36;;;;;;;2.72;2.55;;;;;;;18.74;100.00;100196.06;10499599;28;20056;-63
2022/10/15 13:13:43;;;;;;;2.22;2.13;;;;;;;18.50;100.00;100188.47;10500106;28;20116;-66
2022/10/15 13:18:54;;;;;;;1.90;1.70;;;;;;;19.13;100.00;100202.44;10497453;28;20086;-63
2022/10/15 13:23:57;;;;;;;2.33;2.22;;;;;;;19.16;100.00;100210.13;10458082;28;20079;-64
2022/10/15 13:28:58;;;;;;;1.77;1.67;;;;;;;19.14;100.00;100206.75;10458031;28;20538;-66
2022/10/15 13:34:14;;;;;;;2.53;2.33;;;;;;;18.36;100.00;100206.34;10454610;28;20077;-65
2022/10/15 13:39:29;;;;;;;2.30;2.20;;;;;;;18.00;100.00;100209.31;10465843;28;20405;-72
2022/10/15 13:44:30;;;;;;;2.92;2.70;;;;;;;17.83;100.00;100212.53;10496107;28;20106;-74
2022/10/15 13:49:35;;;;;;;2.92;2.83;;;;;;;17.59;100.00;100246.09;10498599;28;20049;-71
2022/10/15 13:54:37;;;;;;;2.17;2.08;;;;;;;17.36;100.00;100253.25;10498138;28;20500;-73
2022/10/15 13:59:39;;;;;;;2.63;2.40;;;;;;;17.25;100.00;100269.94;10497964;28;20083;-72
2022/10/15 14:04:43;;;;;;;1.00;1.00;;;;;;;17.20;95.74;100286.13;10495939;28;20052;-70
2022/10/15 14:09:47;;;;;;;0.60;0.60;;;;;;;16.59;83.29;100288.13;10496882;28;20506;-77
2022/10/15 14:14:49;;;;;;;0.98;0.50;;;;;;;16.49;81.19;100302.94;10479769;28;20404;-77
2022/10/15 14:19:58;;;;;;;2.08;0.40;;;;;;;16.28;83.44;100292.28;10497575;28;20059;-74
2022/10/15 14:25:10;;;;;;;0.47;0.43;;;;;;;16.23;84.72;100305.78;10497392;28;20102;-73
2022/10/15 14:30:20;;;;;;;0.50;0.50;;;;;;;16.18;85.37;100311.38;10490720;28;20044;-72
2022/10/15 14:35:34;;;;;;;0.98;0.50;;;;;;;16.27;85.74;100311.63;10478957;28;20049;-68
2022/10/15 14:40:36;;;;;;;0.55;0.40;;;;;;;16.34;85.73;100320.75;10470430;28;20044;-64
2022/10/15 14:45:54;;;;;;;1.60;0.60;;;;;;;16.44;88.17;100331.44;10496387;28;20076;-67
2022/10/15 14:51:00;;;;;;;2.08;0.70;;;;;;;16.27;89.39;100325.66;10496360;28;20122;-66
2022/10/15 14:56:10;;;;;;;0.98;0.68;;;;;;;16.15;86.51;100327.41;10472787;28;20053;-65
2022/10/15 15:01:16;;;;;;;1.40;0.60;;;;;;;16.18;85.75;100337.72;10453109;28;20056;-76
2022/10/15 15:06:19;;;;;;;0.65;0.43;;;;;;;16.01;84.09;100340.75;10454901;28;20611;-73
2022/10/15 15:11:25;;;;;;;1.90;0.80;;;;;;;16.11;85.31;100352.28;10454879;28;20099;-75
2022/10/15 15:16:27;;;;;;;1.23;0.70;;;;;;;15.85;83.46;100355.00;10454714;28;20130;-77
2022/10/15 15:21:31;;;;;;;;;;;;;;;15.89;83.96;100358.25;10461840;28;20063;-74
2022/10/15 15:26:32;;;;;;;2.97;0.80;;;;;;;15.89;84.75;100355.59;10462751;28;19932;-73
2022/10/15 15:31:35;;;;;;;;;;;;;;;15.77;81.41;100365.25;10460504;28;20073;-75
2022/10/15 15:36:38;;;;;;;1.05;0.60;;;;;;;15.67;84.07;100375.59;10462348;28;19920;-77
2022/10/15 15:41:40;;;;;;;1.75;1.50;;;;;;;15.57;84.30;100375.41;10461616;28;20083;-76
2022/10/15 15:46:42;;;;;;;;;;;;;;;15.42;85.90;100372.91;10461664;28;20473;-75
2022/10/15 15:51:46;;;;;;;;;;;;;;;15.31;88.01;100375.44;10462463;28;19967;-73
2022/10/15 15:56:48;;;;;;;1.33;0.90;;;;;;;15.28;90.27;100380.91;10461249;28;19920;-75
2022/10/15 16:01:49;;;;;;;;;;;;;;;15.06;91.92;100382.44;10459242;28;20056;-74
2022/10/15 16:06:52;;;;;;;3.60;1.40;;;;;;;14.93;94.03;100387.66;10460524;28;20342;-76
2022/10/15 16:11:56;;;;;;;5.00;1.40;;;;;;;14.68;97.15;100395.38;10460326;28;20061;-76
2022/10/15 16:16:58;;;;;;;2.40;1.70;;;;;;;14.59;97.15;100395.16;10460371;28;20060;-73
2022/10/15 16:22:01;;;;;;;4.35;2.30;;;;;;;14.39;99.01;100387.66;10460119;28;20099;-76
2022/10/15 16:27:02;;;;;;;3.75;1.90;;;;;;;14.11;100.00;100393.88;10459793;28;20455;-76
2022/10/15 16:32:04;;;;;;;;;;;;;;;13.73;100.00;100404.09;10457355;28;20120;-73
2022/10/15 16:37:08;;;;;;;5.72;2.30;;;;;;;13.29;100.00;100415.50;10459603;28;19920;-72
2022/10/15 16:42:12;;;;;;;5.47;4.25;;;;;;;13.11;100.00;100421.78;10459281;28;20107;-72
2022/10/15 16:47:13;;;;;;;6.55;2.40;;;;;;;12.99;100.00;100409.41;10459215;28;20049;-73
2022/10/15 16:52:16;;;;;;;6.05;2.60;;;;;;;12.79;100.00;100424.53;10459915;28;20067;-73
2022/10/15 16:57:18;;;;;;;6.88;3.92;;;;;;;12.53;100.00;100437.38;10459587;28;20075;-72
2022/10/15 17:02:21;;;;;;;11.55;4.30;;;;;;;12.27;100.00;100459.75;10456380;28;20052;-72
2022/10/15 17:07:24;;;;;;;10.85;4.30;;;;;;;11.96;100.00;100457.03;10459038;28;20057;-74
2022/10/15 17:12:29;;;;;;;8.77;4.22;;;;;;;11.72;100.00;100475.72;10458817;28;20140;-72
2022/10/15 17:17:30;;;;;;;6.18;4.25;;;;;;;11.48;100.00;100486.56;10458513;28;20101;-68
2022/10/15 17:22:36;;;;;;;4.03;3.30;;;;;;;11.46;100.00;100486.63;10458073;28;20053;-67
2022/10/15 17:27:37;;;;;;;5.40;3.58;;;;;;;11.46;100.00;100496.22;10458324;28;20075;-67
2022/10/15 17:32:39;;;;;;;4.85;3.40;;;;;;;11.66;100.00;100512.63;10455564;28;20111;-66
2022/10/15 17:37:43;;;;;;;5.40;2.40;;;;;;;12.32;100.00;100510.06;10457070;28;20517;-73
2022/10/15 17:42:45;;;;;;;4.38;2.65;;;;;;;12.50;100.00;100523.91;10456072;28;20424;-73
2022/10/15 17:47:46;;;;;;;4.38;2.70;;;;;;;12.71;100.00;100539.31;10456669;28;20045;-75
2022/10/15 17:52:49;;;;;;;4.68;2.70;;;;;;;13.17;100.00;100533.22;10456550;28;20481;-73
2022/10/15 17:57:51;;;;;;;3.38;2.67;;;;;;;13.01;100.00;100543.75;10456984;28;20072;-74
2022/10/15 18:02:53;;;;;;;7.65;3.05;;;;;;;12.94;100.00;100543.28;10453878;28;20459;-66
2022/10/15 18:07:56;;;;;;;5.00;3.15;;;;;;;13.13;100.00;100558.75;10456117;28;20061;-64
2022/10/15 18:12:58;;;;;;;5.43;2.80;;;;;;;13.10;100.00;100553.69;10455592;28;20049;-64
2022/10/15 18:18:00;;;;;;;4.32;2.33;;;;;;;13.30;100.00;100559.56;10456140;28;20492;-64
2022/10/15 18:23:03;;;;;;;8.93;2.83;;;;;;;13.34;100.00;100570.72;10455941;28;20049;-65
2022/10/15 18:28:07;;;;;;;3.63;2.47;;;;;;;13.26;100.00;100573.78;10455086;28;20076;-65
2022/10/15 18:33:11;;;;;;;5.43;2.47;;;;;;;13.23;100.00;100571.31;10453227;28;20080;-64
2022/10/15 18:38:15;;;;;;;5.30;2.42;;;;;;;13.18;100.00;100576.00;10454747;28;20055;-63
2022/10/15 18:43:18;;;;;;;5.38;2.30;;;;;;;13.08;100.00;100575.69;10454697;28;20696;-65
2022/10/15 18:48:20;;;;;;;4.63;2.47;;;;;;;13.12;100.00;100578.03;10454354;28;20078;-65
2022/10/15 18:53:25;;;;;;;9.65;3.55;;;;;;;13.05;100.00;100581.09;10454282;28;20064;-65
2022/10/15 18:58:27;;;;;;;10.88;4.53;;;;;;;12.97;100.00;100573.69;10454932;28;20197;-63
2022/10/15 19:03:30;;;;;;;18.10;10.10;;;;;;;12.86;100.00;100592.59;10452149;28;20076;-64
2022/10/15 19:08:33;;;;;;;10.50;5.95;;;;;;;12.83;100.00;100592.78;10454122;28;20064;-65
2022/10/15 19:13:35;;;;;;;9.50;5.93;;;;;;;12.72;100.00;100596.00;10453915;28;20053;-63
2022/10/15 19:18:36;;;;;;;12.02;7.90;;;;;;;12.67;100.00;100590.16;10453867;28;20068;-64
2022/10/15 19:23:39;;;;;;;7.18;3.38;;;;;;;12.61;100.00;100604.44;10454070;28;20045;-65
2022/10/15 19:28:41;;;;;;;4.38;3.00;;;;;;;12.58;100.00;100602.00;10454096;28;20087;-64
2022/10/15 19:33:43;;;;;;;6.97;3.17;;;;;;;12.47;100.00;100613.06;10451492;28;20099;-64
2022/10/15 19:38:46;;;;;;;4.82;3.45;;;;;;;12.39;100.00;100620.47;10454070;28;20057;-63
2022/10/15 19:43:48;;;;;;;5.07;3.80;;;;;;;12.41;100.00;100618.59;10453632;28;20052;-63
2022/10/15 19:48:49;;;;;;;;;;;;;;;12.31;100.00;100619.09;10453817;28;20053;-64
2022/10/15 19:53:53;;;;;;;7.60;3.08;;;;;;;12.54;100.00;100618.78;10453837;28;19921;-66
2022/10/15 19:58:55;;;;;;;6.32;2.40;;;;;;;12.49;100.00;100626.91;10453432;28;20056;-65
2022/10/15 20:03:59;;;;;;;4.30;2.53;;;;;;;12.44;100.00;100626.28;10451090;28;20059;-63
2022/10/15 20:09:02;;;;;;;6.43;2.97;;;;;;;12.49;100.00;100634.75;10460115;28;20052;-65
2022/10/15 20:14:06;;;;;;;6.35;3.53;;;;;;;12.54;100.00;100622.25;10461101;28;20056;-63
2022/10/15 20:19:07;;;;;;;7.63;3.20;;;;;;;12.49;100.00;100624.28;10460399;28;20045;-64
2022/10/15 20:24:11;;;;;;;4.97;2.65;;;;;;;12.34;100.00;100628.56;10460390;28;20100;-66
2022/10/15 20:29:16;;;;;;;5.28;2.78;;;;;;;12.19;100.00;100643.31;10460019;28;20499;-64
2022/10/15 20:34:19;;;;;;;7.40;3.25;;;;;;;12.06;100.00;100645.72;10458225;28;20036;-65
2022/10/15 20:39:23;;;;;;;4.13;2.40;;;;;;;11.95;100.00;100649.69;10459882;28;20068;-74
2022/10/15 20:44:25;;;;;;;6.38;2.72;;;;;;;11.98;100.00;100648.72;10460451;28;20053;-78
2022/10/15 20:49:39;;;;;;;8.35;2.90;;;;;;;12.02;100.00;100659.84;10459594;28;20053;-64
2022/10/15 20:54:43;;;;;;;5.70;2.88;;;;;;;12.10;100.00;100663.78;10459671;28;20049;-62
2022/10/15 20:59:45;;;;;;;7.47;3.08;;;;;;;12.03;100.00;100662.38;10458897;28;20077;-65
2022/10/15 21:04:47;;;;;;;4.97;2.83;;;;;;;12.01;100.00;100659.00;10456765;28;20102;-66
2022/10/15 21:09:50;;;;;;;7.72;3.30;;;;;;;11.90;100.00;100671.78;10458589;28;20099;-66
2022/10/15 21:14:52;;;;;;;6.75;3.10;;;;;;;11.90;100.00;100682.25;10458365;28;20053;-64
2022/10/15 21:19:53;;;;;;;3.90;2.63;;;;;;;12.03;100.00;100698.13;10458507;28;20041;-66
2022/10/15 21:24:57;;;;;;;5.85;3.00;;;;;;;11.88;100.00;100702.38;10458220;28;20083;-63
2022/10/15 21:29:59;;;;;;;6.65;3.50;;;;;;;11.80;100.00;100714.06;10457717;28;20118;-66
2022/10/15 21:35:02;;;;;;;9.55;3.85;;;;;;;11.71;100.00;100709.31;10455421;28;20079;-62
2022/10/15 21:40:07;;;;;;;7.40;3.63;;;;;;;11.77;100.00;100714.22;10457625;28;20048;-65
2022/10/15 21:45:10;;;;;;;8.30;3.70;;;;;;;11.68;100.00;100712.06;10457708;28;20044;-65
2022/10/15 21:50:11;;;;;;;10.52;4.20;;;;;;;11.61;100.00;100718.50;10456825;28;20493;-63
2022/10/15 21:55:16;;;;;;;8.93;4.25;;;;;;;11.55;100.00;100717.91;10456753;28;20102;-63
2022/10/15 22:00:18;;;;;;;8.52;4.50;;;;;;;11.52;100.00;100719.81;10456505;28;20071;-63
2022/10/15 22:05:20;;;;;;;8.02;3.78;;;;;;;11.46;100.00;100720.94;10454958;28;20469;-64
2022/10/15 22:10:23;;;;;;;9.00;3.95;;;;;;;11.44;100.00;100723.66;10456169;28;20084;-63
2022/10/15 22:15:25;;;;;;;6.45;3.83;;;;;;;11.44;100.00;100717.56;10456187;28;20102;-66
2022/10/15 22:20:26;;;;;;;6.97;3.83;;;;;;;11.55;100.00;100717.91;10456104;28;20052;-61
2022/10/15 22:25:31;;;;;;;9.43;3.80;;;;;;;11.58;100.00;100717.75;10456014;28;20080;-64
2022/10/15 22:30:35;;;;;;;6.15;4.00;;;;;;;11.49;100.00;100715.56;10452861;28;20106;-63
2022/10/15 22:35:38;;;;;;;6.05;3.63;;;;;;;11.51;100.00;100729.44;10455385;28;20623;-62
2022/10/15 22:40:41;;;;;;;4.75;3.50;;;;;;;11.54;100.00;100723.19;10455520;28;20106;-63
2022/10/15 22:45:44;;;;;;;8.20;3.40;;;;;;;11.65;100.00;100727.91;10455473;28;20049;-64
2022/10/15 22:50:46;;;;;;;6.93;3.47;;;;;;;11.69;100.00;100726.81;10454836;28;20049;-63
2022/10/15 22:55:56;;;;;;;5.25;3.60;;;;;;;11.62;100.00;100721.06;10454923;28;20075;-64
2022/10/15 23:01:07;;;;;;;5.15;3.40;;;;;;;11.68;100.00;100730.38;10452524;28;20048;-63
2022/10/15 23:06:10;;;;;;;5.53;3.40;;;;;;;11.67;100.00;100733.91;10455366;28;20065;-63